sensor_id;sensor_type;location;lat;lon;timestamp;P1;durP1;ratioP1;P2;durP2;ratioP2
13012;SDS011;22580;57.670;12.006;2023-09-19T00:00:35;3.50;;;3.30;;
13012;SDS011;22580;57.670;12.006;2023-09-19T00:03:03;3.03;;;2.83;;
13012;SDS011;22580;57.670;12.006;2023-09-19T00:05:33;3.20;;;3.00;;
13012;SDS011;22580;57.670;12.006;2023-09-19T00:08:03;3.90;;;3.70;;
13012;SDS011;22580;57.670;12.006;2023-09-19T00:10:33;4.03;;;3.72;;
13012;SDS011;22580;57.670;12.006;2023-09-19T00:13:01;3.88;;;3.58;;
13012;SDS011;22580;57.670;12.006;2023-09-19T00:15:37;4.78;;;4.38;;
13012;SDS011;22580;57.670;12.006;2023-09-19T00:18:06;5.22;;;4.82;;
13012;SDS011;22580;57.670;12.006;2023-09-19T00:20:35;4.25;;;3.95;;
13012;SDS011;22580;57.670;12.006;2023-09-19T00:23:03;4.43;;;4.13;;
13012;SDS011;22580;57.670;12.006;2023-09-19T00:25:34;4.40;;;4.00;;
13012;SDS011;22580;57.670;12.006;2023-09-19T00:28:02;5.38;;;4.72;;
13012;SDS011;22580;57.670;12.006;2023-09-19T00:30:32;5.53;;;5.05;;
13012;SDS011;22580;57.670;12.006;2023-09-19T00:33:01;4.32;;;4.03;;
13012;SDS011;22580;57.670;12.006;2023-09-19T00:35:33;4.00;;;3.70;;
13012;SDS011;22580;57.670;12.006;2023-09-19T00:38:03;4.90;;;4.40;;
13012;SDS011;22580;57.670;12.006;2023-09-19T00:40:32;4.40;;;4.00;;
13012;SDS011;22580;57.670;12.006;2023-09-19T00:43:00;5.13;;;4.72;;
13012;SDS011;22580;57.670;12.006;2023-09-19T00:45:27;5.55;;;5.05;;
13012;SDS011;22580;57.670;12.006;2023-09-19T00:47:55;5.13;;;4.72;;
13012;SDS011;22580;57.670;12.006;2023-09-19T00:50:25;4.30;;;4.00;;
13012;SDS011;22580;57.670;12.006;2023-09-19T00:52:57;4.38;;;4.07;;
13012;SDS011;22580;57.670;12.006;2023-09-19T00:55:25;4.60;;;4.30;;
13012;SDS011;22580;57.670;12.006;2023-09-19T00:57:57;4.20;;;3.90;;
13012;SDS011;22580;57.670;12.006;2023-09-19T01:00:25;4.57;;;4.28;;
13012;SDS011;22580;57.670;12.006;2023-09-19T01:02:52;4.50;;;4.20;;
13012;SDS011;22580;57.670;12.006;2023-09-19T01:05:21;4.20;;;3.90;;
13012;SDS011;22580;57.670;12.006;2023-09-19T01:07:51;3.65;;;3.42;;
13012;SDS011;22580;57.670;12.006;2023-09-19T01:10:19;4.40;;;4.00;;
13012;SDS011;22580;57.670;12.006;2023-09-19T01:12:54;3.70;;;3.50;;
13012;SDS011;22580;57.670;12.006;2023-09-19T01:15:27;4.10;;;3.80;;
13012;SDS011;22580;57.670;12.006;2023-09-19T01:18:01;3.30;;;3.10;;
13012;SDS011;22580;57.670;12.006;2023-09-19T01:20:37;3.70;;;3.40;;
13012;SDS011;22580;57.670;12.006;2023-09-19T01:23:17;3.80;;;3.50;;
13012;SDS011;22580;57.670;12.006;2023-09-19T01:26:03;4.00;;;3.60;;
13012;SDS011;22580;57.670;12.006;2023-09-19T01:28:43;3.65;;;3.45;;
13012;SDS011;22580;57.670;12.006;2023-09-19T01:31:23;3.10;;;2.90;;
13012;SDS011;22580;57.670;12.006;2023-09-19T01:33:55;3.70;;;3.50;;
13012;SDS011;22580;57.670;12.006;2023-09-19T01:36:23;3.90;;;3.60;;
13012;SDS011;22580;57.670;12.006;2023-09-19T01:38:52;3.90;;;3.60;;
13012;SDS011;22580;57.670;12.006;2023-09-19T01:41:25;3.67;;;3.38;;
13012;SDS011;22580;57.670;12.006;2023-09-19T01:43:59;4.13;;;3.83;;
13012;SDS011;22580;57.670;12.006;2023-09-19T01:46:38;3.53;;;3.33;;
13012;SDS011;22580;57.670;12.006;2023-09-19T01:49:12;3.80;;;3.60;;
13012;SDS011;22580;57.670;12.006;2023-09-19T01:51:55;4.50;;;4.20;;
13012;SDS011;22580;57.670;12.006;2023-09-19T01:54:32;4.88;;;4.30;;
13012;SDS011;22580;57.670;12.006;2023-09-19T01:57:05;4.68;;;4.32;;
13012;SDS011;22580;57.670;12.006;2023-09-19T01:59:38;4.30;;;4.00;;
13012;SDS011;22580;57.670;12.006;2023-09-19T02:02:14;4.60;;;4.20;;
13012;SDS011;22580;57.670;12.006;2023-09-19T02:04:44;4.80;;;4.32;;
13012;SDS011;22580;57.670;12.006;2023-09-19T02:07:11;4.63;;;4.28;;
13012;SDS011;22580;57.670;12.006;2023-09-19T02:09:42;4.93;;;4.53;;
13012;SDS011;22580;57.670;12.006;2023-09-19T02:12:10;5.07;;;4.63;;
13012;SDS011;22580;57.670;12.006;2023-09-19T02:14:38;5.88;;;5.38;;
13012;SDS011;22580;57.670;12.006;2023-09-19T02:17:05;5.25;;;4.85;;
13012;SDS011;22580;57.670;12.006;2023-09-19T02:19:38;6.10;;;5.50;;
13012;SDS011;22580;57.670;12.006;2023-09-19T02:22:06;5.00;;;4.60;;
13012;SDS011;22580;57.670;12.006;2023-09-19T02:24:35;4.68;;;4.28;;
13012;SDS011;22580;57.670;12.006;2023-09-19T02:27:03;4.85;;;4.45;;
13012;SDS011;22580;57.670;12.006;2023-09-19T02:29:30;5.30;;;4.90;;
13012;SDS011;22580;57.670;12.006;2023-09-19T02:31:59;5.25;;;4.85;;
13012;SDS011;22580;57.670;12.006;2023-09-19T02:34:27;6.22;;;5.63;;
13012;SDS011;22580;57.670;12.006;2023-09-19T02:36:57;6.70;;;6.10;;
13012;SDS011;22580;57.670;12.006;2023-09-19T02:39:30;6.18;;;5.60;;
13012;SDS011;22580;57.670;12.006;2023-09-19T02:41:59;5.90;;;5.32;;
13012;SDS011;22580;57.670;12.006;2023-09-19T02:44:27;4.68;;;4.28;;
13012;SDS011;22580;57.670;12.006;2023-09-19T02:46:55;4.50;;;4.07;;
13012;SDS011;22580;57.670;12.006;2023-09-19T02:49:23;4.25;;;3.85;;
13012;SDS011;22580;57.670;12.006;2023-09-19T02:51:50;4.53;;;4.15;;
13012;SDS011;22580;57.670;12.006;2023-09-19T02:54:21;3.83;;;3.53;;
13012;SDS011;22580;57.670;12.006;2023-09-19T02:56:48;4.18;;;3.78;;
13012;SDS011;22580;57.670;12.006;2023-09-19T02:59:19;3.42;;;3.13;;
13012;SDS011;22580;57.670;12.006;2023-09-19T03:01:47;3.47;;;3.15;;
13012;SDS011;22580;57.670;12.006;2023-09-19T03:04:15;3.55;;;3.33;;
13012;SDS011;22580;57.670;12.006;2023-09-19T03:06:46;3.45;;;3.10;;
13012;SDS011;22580;57.670;12.006;2023-09-19T03:09:16;3.20;;;2.90;;
13012;SDS011;22580;57.670;12.006;2023-09-19T03:11:46;3.10;;;2.78;;
13012;SDS011;22580;57.670;12.006;2023-09-19T03:14:15;3.72;;;3.20;;
13012;SDS011;22580;57.670;12.006;2023-09-19T03:16:42;3.15;;;2.85;;
13012;SDS011;22580;57.670;12.006;2023-09-19T03:19:09;2.78;;;2.58;;
13012;SDS011;22580;57.670;12.006;2023-09-19T03:21:37;2.38;;;2.17;;
13012;SDS011;22580;57.670;12.006;2023-09-19T03:24:04;3.20;;;2.90;;
13012;SDS011;22580;57.670;12.006;2023-09-19T03:26:32;2.70;;;2.50;;
13012;SDS011;22580;57.670;12.006;2023-09-19T03:29:02;2.65;;;2.45;;
13012;SDS011;22580;57.670;12.006;2023-09-19T03:31:33;2.60;;;2.40;;
13012;SDS011;22580;57.670;12.006;2023-09-19T03:34:03;4.15;;;2.63;;
13012;SDS011;22580;57.670;12.006;2023-09-19T03:36:30;2.45;;;2.13;;
13012;SDS011;22580;57.670;12.006;2023-09-19T03:38:59;2.85;;;2.33;;
13012;SDS011;22580;57.670;12.006;2023-09-19T03:41:26;2.15;;;1.88;;
13012;SDS011;22580;57.670;12.006;2023-09-19T03:43:56;2.95;;;1.90;;
13012;SDS011;22580;57.670;12.006;2023-09-19T03:46:25;2.85;;;2.20;;
13012;SDS011;22580;57.670;12.006;2023-09-19T03:48:52;2.00;;;1.90;;
13012;SDS011;22580;57.670;12.006;2023-09-19T03:51:19;2.97;;;1.80;;
13012;SDS011;22580;57.670;12.006;2023-09-19T03:53:46;1.75;;;1.42;;
13012;SDS011;22580;57.670;12.006;2023-09-19T03:56:14;2.03;;;1.83;;
13012;SDS011;22580;57.670;12.006;2023-09-19T03:58:42;3.00;;;1.88;;
13012;SDS011;22580;57.670;12.006;2023-09-19T04:01:10;1.40;;;1.30;;
13012;SDS011;22580;57.670;12.006;2023-09-19T04:03:42;3.88;;;2.05;;
13012;SDS011;22580;57.670;12.006;2023-09-19T04:06:13;2.67;;;1.40;;
13012;SDS011;22580;57.670;12.006;2023-09-19T04:08:40;1.95;;;1.60;;
13012;SDS011;22580;57.670;12.006;2023-09-19T04:11:11;3.22;;;1.73;;
13012;SDS011;22580;57.670;12.006;2023-09-19T04:13:38;3.63;;;1.80;;
13012;SDS011;22580;57.670;12.006;2023-09-19T04:16:05;2.30;;;1.52;;
13012;SDS011;22580;57.670;12.006;2023-09-19T04:18:34;4.43;;;2.03;;
13012;SDS011;22580;57.670;12.006;2023-09-19T04:21:04;2.70;;;1.90;;
13012;SDS011;22580;57.670;12.006;2023-09-19T04:23:34;2.25;;;1.65;;
13012;SDS011;22580;57.670;12.006;2023-09-19T04:26:01;3.33;;;1.75;;
13012;SDS011;22580;57.670;12.006;2023-09-19T04:28:29;2.85;;;1.88;;
13012;SDS011;22580;57.670;12.006;2023-09-19T04:30:56;2.53;;;1.70;;
13012;SDS011;22580;57.670;12.006;2023-09-19T04:33:24;3.30;;;1.70;;
13012;SDS011;22580;57.670;12.006;2023-09-19T04:35:54;2.70;;;1.58;;
13012;SDS011;22580;57.670;12.006;2023-09-19T04:38:23;2.65;;;1.67;;
13012;SDS011;22580;57.670;12.006;2023-09-19T04:40:50;2.08;;;1.65;;
13012;SDS011;22580;57.670;12.006;2023-09-19T04:43:23;2.65;;;1.75;;
13012;SDS011;22580;57.670;12.006;2023-09-19T04:45:50;2.20;;;1.50;;
13012;SDS011;22580;57.670;12.006;2023-09-19T04:48:20;1.92;;;1.25;;
13012;SDS011;22580;57.670;12.006;2023-09-19T04:50:49;1.70;;;1.23;;
13012;SDS011;22580;57.670;12.006;2023-09-19T04:53:16;2.40;;;1.15;;
13012;SDS011;22580;57.670;12.006;2023-09-19T04:55:50;1.83;;;0.90;;
13012;SDS011;22580;57.670;12.006;2023-09-19T04:58:22;2.17;;;1.13;;
13012;SDS011;22580;57.670;12.006;2023-09-19T05:00:49;2.22;;;1.10;;
13012;SDS011;22580;57.670;12.006;2023-09-19T05:03:17;2.05;;;1.02;;
13012;SDS011;22580;57.670;12.006;2023-09-19T05:05:46;3.63;;;1.42;;
13012;SDS011;22580;57.670;12.006;2023-09-19T05:08:13;2.60;;;1.20;;
13012;SDS011;22580;57.670;12.006;2023-09-19T05:10:40;1.08;;;0.90;;
13012;SDS011;22580;57.670;12.006;2023-09-19T05:13:08;2.22;;;1.05;;
13012;SDS011;22580;57.670;12.006;2023-09-19T05:15:37;2.80;;;1.10;;
13012;SDS011;22580;57.670;12.006;2023-09-19T05:18:05;1.92;;;0.80;;
13012;SDS011;22580;57.670;12.006;2023-09-19T05:20:33;3.00;;;1.15;;
13012;SDS011;22580;57.670;12.006;2023-09-19T05:23:03;0.75;;;0.70;;
13012;SDS011;22580;57.670;12.006;2023-09-19T05:25:33;1.63;;;1.13;;
13012;SDS011;22580;57.670;12.006;2023-09-19T05:28:04;1.83;;;1.10;;
13012;SDS011;22580;57.670;12.006;2023-09-19T05:30:35;2.72;;;1.20;;
13012;SDS011;22580;57.670;12.006;2023-09-19T05:33:05;2.50;;;1.38;;
13012;SDS011;22580;57.670;12.006;2023-09-19T05:35:32;1.10;;;1.00;;
13012;SDS011;22580;57.670;12.006;2023-09-19T05:37:59;1.42;;;1.00;;
13012;SDS011;22580;57.670;12.006;2023-09-19T05:40:26;1.75;;;1.23;;
13012;SDS011;22580;57.670;12.006;2023-09-19T05:42:53;1.63;;;1.17;;
13012;SDS011;22580;57.670;12.006;2023-09-19T05:45:22;3.42;;;1.33;;
13012;SDS011;22580;57.670;12.006;2023-09-19T05:47:50;3.00;;;1.25;;
13012;SDS011;22580;57.670;12.006;2023-09-19T05:50:20;2.15;;;1.00;;
13012;SDS011;22580;57.670;12.006;2023-09-19T05:52:53;1.88;;;0.93;;
13012;SDS011;22580;57.670;12.006;2023-09-19T05:55:21;1.83;;;1.10;;
13012;SDS011;22580;57.670;12.006;2023-09-19T05:57:50;2.03;;;1.05;;
13012;SDS011;22580;57.670;12.006;2023-09-19T06:00:23;2.42;;;1.02;;
13012;SDS011;22580;57.670;12.006;2023-09-19T06:02:56;1.80;;;1.00;;
13012;SDS011;22580;57.670;12.006;2023-09-19T06:05:26;1.15;;;0.90;;
13012;SDS011;22580;57.670;12.006;2023-09-19T06:07:55;1.73;;;1.02;;
13012;SDS011;22580;57.670;12.006;2023-09-19T06:10:25;1.00;;;0.77;;
13012;SDS011;22580;57.670;12.006;2023-09-19T06:12:53;2.20;;;0.93;;
13012;SDS011;22580;57.670;12.006;2023-09-19T06:15:23;1.70;;;0.98;;
13012;SDS011;22580;57.670;12.006;2023-09-19T06:17:51;1.52;;;1.00;;
13012;SDS011;22580;57.670;12.006;2023-09-19T06:20:23;0.95;;;0.70;;
13012;SDS011;22580;57.670;12.006;2023-09-19T06:22:51;2.30;;;1.05;;
13012;SDS011;22580;57.670;12.006;2023-09-19T06:25:19;1.48;;;0.70;;
13012;SDS011;22580;57.670;12.006;2023-09-19T06:27:47;1.27;;;0.85;;
13012;SDS011;22580;57.670;12.006;2023-09-19T06:30:14;0.98;;;0.77;;
13012;SDS011;22580;57.670;12.006;2023-09-19T06:32:43;0.77;;;0.60;;
13012;SDS011;22580;57.670;12.006;2023-09-19T06:35:10;1.80;;;0.90;;
13012;SDS011;22580;57.670;12.006;2023-09-19T06:37:40;1.50;;;0.77;;
13012;SDS011;22580;57.670;12.006;2023-09-19T06:40:08;1.58;;;0.98;;
13012;SDS011;22580;57.670;12.006;2023-09-19T06:42:41;2.10;;;0.75;;
13012;SDS011;22580;57.670;12.006;2023-09-19T06:45:09;3.45;;;1.38;;
13012;SDS011;22580;57.670;12.006;2023-09-19T06:47:38;0.93;;;0.93;;
13012;SDS011;22580;57.670;12.006;2023-09-19T06:50:06;0.90;;;0.70;;
13012;SDS011;22580;57.670;12.006;2023-09-19T06:52:39;1.10;;;0.60;;
13012;SDS011;22580;57.670;12.006;2023-09-19T06:55:08;2.58;;;0.98;;
13012;SDS011;22580;57.670;12.006;2023-09-19T06:57:37;2.13;;;0.98;;
13012;SDS011;22580;57.670;12.006;2023-09-19T07:00:06;1.20;;;0.82;;
13012;SDS011;22580;57.670;12.006;2023-09-19T07:02:40;1.88;;;1.20;;
13012;SDS011;22580;57.670;12.006;2023-09-19T07:05:07;1.48;;;0.90;;
13012;SDS011;22580;57.670;12.006;2023-09-19T07:07:34;1.33;;;0.98;;
13012;SDS011;22580;57.670;12.006;2023-09-19T07:10:03;1.08;;;0.70;;
13012;SDS011;22580;57.670;12.006;2023-09-19T07:12:30;2.42;;;1.15;;
13012;SDS011;22580;57.670;12.006;2023-09-19T07:14:58;2.78;;;1.50;;
13012;SDS011;22580;57.670;12.006;2023-09-19T07:17:26;2.50;;;0.95;;
13012;SDS011;22580;57.670;12.006;2023-09-19T07:19:54;2.45;;;0.90;;
13012;SDS011;22580;57.670;12.006;2023-09-19T07:22:24;1.35;;;0.85;;
13012;SDS011;22580;57.670;12.006;2023-09-19T07:24:53;1.83;;;1.08;;
13012;SDS011;22580;57.670;12.006;2023-09-19T07:27:22;1.92;;;1.00;;
13012;SDS011;22580;57.670;12.006;2023-09-19T07:29:52;2.92;;;1.23;;
13012;SDS011;22580;57.670;12.006;2023-09-19T07:32:20;1.75;;;0.90;;
13012;SDS011;22580;57.670;12.006;2023-09-19T07:34:47;1.67;;;0.80;;
13012;SDS011;22580;57.670;12.006;2023-09-19T07:37:15;1.58;;;0.93;;
13012;SDS011;22580;57.670;12.006;2023-09-19T07:39:41;1.60;;;1.00;;
13012;SDS011;22580;57.670;12.006;2023-09-19T07:42:10;3.25;;;1.35;;
13012;SDS011;22580;57.670;12.006;2023-09-19T07:44:44;2.47;;;1.50;;
13012;SDS011;22580;57.670;12.006;2023-09-19T07:47:12;1.13;;;0.80;;
13012;SDS011;22580;57.670;12.006;2023-09-19T07:49:42;2.00;;;0.90;;
13012;SDS011;22580;57.670;12.006;2023-09-19T07:52:09;1.80;;;1.05;;
13012;SDS011;22580;57.670;12.006;2023-09-19T07:54:37;2.65;;;1.13;;
13012;SDS011;22580;57.670;12.006;2023-09-19T07:57:09;2.28;;;1.50;;
13012;SDS011;22580;57.670;12.006;2023-09-19T07:59:37;4.45;;;1.50;;
13012;SDS011;22580;57.670;12.006;2023-09-19T08:02:08;1.88;;;1.30;;
13012;SDS011;22580;57.670;12.006;2023-09-19T08:04:40;2.85;;;1.30;;
13012;SDS011;22580;57.670;12.006;2023-09-19T08:07:07;2.25;;;1.10;;
13012;SDS011;22580;57.670;12.006;2023-09-19T08:09:36;2.80;;;1.23;;
13012;SDS011;22580;57.670;12.006;2023-09-19T08:12:04;2.03;;;1.23;;
13012;SDS011;22580;57.670;12.006;2023-09-19T08:14:33;3.13;;;1.30;;
13012;SDS011;22580;57.670;12.006;2023-09-19T08:17:00;1.98;;;1.20;;
13012;SDS011;22580;57.670;12.006;2023-09-19T08:19:29;1.52;;;0.90;;
13012;SDS011;22580;57.670;12.006;2023-09-19T08:21:57;3.17;;;1.42;;
13012;SDS011;22580;57.670;12.006;2023-09-19T08:24:25;3.42;;;1.65;;
13012;SDS011;22580;57.670;12.006;2023-09-19T08:26:53;1.52;;;1.10;;
13012;SDS011;22580;57.670;12.006;2023-09-19T08:29:21;3.08;;;1.10;;
13012;SDS011;22580;57.670;12.006;2023-09-19T08:31:52;2.70;;;1.38;;
13012;SDS011;22580;57.670;12.006;2023-09-19T08:34:21;2.58;;;1.50;;
13012;SDS011;22580;57.670;12.006;2023-09-19T08:36:51;2.15;;;1.23;;
13012;SDS011;22580;57.670;12.006;2023-09-19T08:39:21;2.80;;;1.50;;
13012;SDS011;22580;57.670;12.006;2023-09-19T08:41:48;2.35;;;1.60;;
13012;SDS011;22580;57.670;12.006;2023-09-19T08:44:15;1.77;;;1.17;;
13012;SDS011;22580;57.670;12.006;2023-09-19T08:46:44;2.85;;;1.50;;
13012;SDS011;22580;57.670;12.006;2023-09-19T08:49:15;2.92;;;1.48;;
13012;SDS011;22580;57.670;12.006;2023-09-19T08:51:56;1.48;;;1.13;;
13012;SDS011;22580;57.670;12.006;2023-09-19T08:54:32;3.97;;;1.55;;
13012;SDS011;22580;57.670;12.006;2023-09-19T08:57:06;1.35;;;1.10;;
13012;SDS011;22580;57.670;12.006;2023-09-19T08:59:36;3.00;;;1.17;;
13012;SDS011;22580;57.670;12.006;2023-09-19T09:02:07;2.25;;;1.15;;
13012;SDS011;22580;57.670;12.006;2023-09-19T09:04:39;1.33;;;1.02;;
13012;SDS011;22580;57.670;12.006;2023-09-19T09:07:10;2.28;;;1.20;;
13012;SDS011;22580;57.670;12.006;2023-09-19T09:09:38;1.52;;;1.00;;
13012;SDS011;22580;57.670;12.006;2023-09-19T09:12:07;2.08;;;0.98;;
13012;SDS011;22580;57.670;12.006;2023-09-19T09:14:37;2.33;;;1.15;;
13012;SDS011;22580;57.670;12.006;2023-09-19T09:17:04;2.22;;;1.05;;
13012;SDS011;22580;57.670;12.006;2023-09-19T09:19:32;2.60;;;1.17;;
13012;SDS011;22580;57.670;12.006;2023-09-19T09:22:05;2.42;;;1.08;;
13012;SDS011;22580;57.670;12.006;2023-09-19T09:24:35;1.23;;;1.10;;
13012;SDS011;22580;57.670;12.006;2023-09-19T09:27:04;2.70;;;0.73;;
13012;SDS011;22580;57.670;12.006;2023-09-19T09:29:40;2.00;;;1.25;;
13012;SDS011;22580;57.670;12.006;2023-09-19T09:32:19;1.65;;;0.93;;
13012;SDS011;22580;57.670;12.006;2023-09-19T09:34:47;1.67;;;0.77;;
13012;SDS011;22580;57.670;12.006;2023-09-19T09:37:19;1.13;;;0.80;;
13012;SDS011;22580;57.670;12.006;2023-09-19T09:39:52;2.20;;;1.00;;
13012;SDS011;22580;57.670;12.006;2023-09-19T09:42:30;2.05;;;0.80;;
13012;SDS011;22580;57.670;12.006;2023-09-19T09:45:16;5.22;;;1.20;;
13012;SDS011;22580;57.670;12.006;2023-09-19T09:47:44;1.73;;;0.98;;
13012;SDS011;22580;57.670;12.006;2023-09-19T09:50:27;1.50;;;0.90;;
13012;SDS011;22580;57.670;12.006;2023-09-19T09:53:03;1.25;;;0.70;;
13012;SDS011;22580;57.670;12.006;2023-09-19T09:55:57;1.70;;;0.98;;
13012;SDS011;22580;57.670;12.006;2023-09-19T09:58:25;1.23;;;0.70;;
13012;SDS011;22580;57.670;12.006;2023-09-19T10:00:55;2.10;;;0.77;;
13012;SDS011;22580;57.670;12.006;2023-09-19T10:03:30;1.00;;;0.70;;
13012;SDS011;22580;57.670;12.006;2023-09-19T10:05:59;1.50;;;0.65;;
13012;SDS011;22580;57.670;12.006;2023-09-19T10:08:57;2.10;;;0.50;;
13012;SDS011;22580;57.670;12.006;2023-09-19T10:11:31;0.68;;;0.52;;
13012;SDS011;22580;57.670;12.006;2023-09-19T10:14:04;1.48;;;0.70;;
13012;SDS011;22580;57.670;12.006;2023-09-19T10:16:35;1.33;;;0.77;;
13012;SDS011;22580;57.670;12.006;2023-09-19T10:19:07;2.50;;;0.95;;
13012;SDS011;22580;57.670;12.006;2023-09-19T10:21:35;1.20;;;0.73;;
13012;SDS011;22580;57.670;12.006;2023-09-19T10:24:04;1.17;;;0.75;;
13012;SDS011;22580;57.670;12.006;2023-09-19T10:26:36;0.98;;;0.50;;
13012;SDS011;22580;57.670;12.006;2023-09-19T10:29:09;2.30;;;0.68;;
13012;SDS011;22580;57.670;12.006;2023-09-19T10:31:36;1.65;;;0.70;;
13012;SDS011;22580;57.670;12.006;2023-09-19T10:34:12;1.17;;;0.80;;
13012;SDS011;22580;57.670;12.006;2023-09-19T10:36:40;1.70;;;0.98;;
13012;SDS011;22580;57.670;12.006;2023-09-19T10:39:12;1.40;;;0.88;;
13012;SDS011;22580;57.670;12.006;2023-09-19T10:41:47;1.08;;;0.68;;
13012;SDS011;22580;57.670;12.006;2023-09-19T10:44:19;1.27;;;0.70;;
13012;SDS011;22580;57.670;12.006;2023-09-19T10:46:50;0.75;;;0.52;;
13012;SDS011;22580;57.670;12.006;2023-09-19T10:49:18;2.25;;;0.80;;
13012;SDS011;22580;57.670;12.006;2023-09-19T10:51:46;2.92;;;0.88;;
13012;SDS011;22580;57.670;12.006;2023-09-19T10:54:16;0.88;;;0.73;;
13012;SDS011;22580;57.670;12.006;2023-09-19T10:56:49;1.23;;;0.70;;
13012;SDS011;22580;57.670;12.006;2023-09-19T10:59:18;2.13;;;0.82;;
13012;SDS011;22580;57.670;12.006;2023-09-19T11:01:46;0.60;;;0.47;;
13012;SDS011;22580;57.670;12.006;2023-09-19T11:04:26;1.10;;;0.57;;
13012;SDS011;22580;57.670;12.006;2023-09-19T11:07:01;1.40;;;0.60;;
13012;SDS011;22580;57.670;12.006;2023-09-19T11:09:43;0.60;;;0.52;;
13012;SDS011;22580;57.670;12.006;2023-09-19T11:12:14;1.42;;;0.70;;
13012;SDS011;22580;57.670;12.006;2023-09-19T11:24:27;1.30;;;0.80;;
13012;SDS011;22580;57.670;12.006;2023-09-19T11:27:09;0.77;;;0.63;;
13012;SDS011;22580;57.670;12.006;2023-09-19T11:29:42;0.55;;;0.50;;
13012;SDS011;22580;57.670;12.006;2023-09-19T11:32:10;1.02;;;0.60;;
13012;SDS011;22580;57.670;12.006;2023-09-19T11:34:41;0.52;;;0.47;;
13012;SDS011;22580;57.670;12.006;2023-09-19T11:40:27;0.70;;;0.63;;
13012;SDS011;22580;57.670;12.006;2023-09-19T11:42:57;1.10;;;0.60;;
13012;SDS011;22580;57.670;12.006;2023-09-19T11:48:30;1.55;;;0.60;;
13012;SDS011;22580;57.670;12.006;2023-09-19T11:51:00;0.98;;;0.57;;
13012;SDS011;22580;57.670;12.006;2023-09-19T11:53:41;0.75;;;0.68;;
13012;SDS011;22580;57.670;12.006;2023-09-19T11:56:09;1.17;;;0.60;;
13012;SDS011;22580;57.670;12.006;2023-09-19T11:58:40;1.08;;;0.60;;
13012;SDS011;22580;57.670;12.006;2023-09-19T12:01:08;1.58;;;0.68;;
13012;SDS011;22580;57.670;12.006;2023-09-19T12:03:46;1.20;;;0.40;;
13012;SDS011;22580;57.670;12.006;2023-09-19T12:06:17;2.30;;;0.65;;
13012;SDS011;22580;57.670;12.006;2023-09-19T12:08:48;1.15;;;0.80;;
13012;SDS011;22580;57.670;12.006;2023-09-19T12:11:16;2.22;;;0.85;;
13012;SDS011;22580;57.670;12.006;2023-09-19T12:13:47;1.95;;;0.60;;
13012;SDS011;22580;57.670;12.006;2023-09-19T12:16:15;1.10;;;0.68;;
13012;SDS011;22580;57.670;12.006;2023-09-19T12:18:47;1.25;;;0.60;;
13012;SDS011;22580;57.670;12.006;2023-09-19T12:21:22;1.48;;;0.80;;
13012;SDS011;22580;57.670;12.006;2023-09-19T12:26:44;1.45;;;0.70;;
13012;SDS011;22580;57.670;12.006;2023-09-19T12:29:15;1.77;;;0.80;;
13012;SDS011;22580;57.670;12.006;2023-09-19T12:31:50;1.88;;;0.70;;
13012;SDS011;22580;57.670;12.006;2023-09-19T12:34:21;1.35;;;0.80;;
13012;SDS011;22580;57.670;12.006;2023-09-19T12:37:03;1.08;;;0.80;;
13012;SDS011;22580;57.670;12.006;2023-09-19T12:39:36;1.45;;;0.50;;
13012;SDS011;22580;57.670;12.006;2023-09-19T12:42:06;1.10;;;0.60;;
13012;SDS011;22580;57.670;12.006;2023-09-19T12:44:37;0.80;;;0.65;;
13012;SDS011;22580;57.670;12.006;2023-09-19T12:47:08;0.90;;;0.70;;
13012;SDS011;22580;57.670;12.006;2023-09-19T12:52:54;0.88;;;0.63;;
13012;SDS011;22580;57.670;12.006;2023-09-19T12:55:26;1.05;;;0.65;;
13012;SDS011;22580;57.670;12.006;2023-09-19T12:57:58;1.10;;;0.70;;
13012;SDS011;22580;57.670;12.006;2023-09-19T13:00:37;1.75;;;0.60;;
13012;SDS011;22580;57.670;12.006;2023-09-19T13:03:09;1.10;;;0.70;;
13012;SDS011;22580;57.670;12.006;2023-09-19T13:05:50;1.10;;;0.70;;
13012;SDS011;22580;57.670;12.006;2023-09-19T13:08:20;1.48;;;0.77;;
13012;SDS011;22580;57.670;12.006;2023-09-19T13:11:07;1.45;;;0.70;;
13012;SDS011;22580;57.670;12.006;2023-09-19T13:13:38;1.90;;;0.75;;
13012;SDS011;22580;57.670;12.006;2023-09-19T13:16:09;1.15;;;0.68;;
13012;SDS011;22580;57.670;12.006;2023-09-19T13:18:43;1.58;;;0.88;;
13012;SDS011;22580;57.670;12.006;2023-09-19T13:21:12;1.05;;;0.60;;
13012;SDS011;22580;57.670;12.006;2023-09-19T13:23:51;1.92;;;1.10;;
13012;SDS011;22580;57.670;12.006;2023-09-19T13:26:24;2.30;;;1.10;;
13012;SDS011;22580;57.670;12.006;2023-09-19T13:28:53;0.82;;;0.55;;
13012;SDS011;22580;57.670;12.006;2023-09-19T13:31:21;0.70;;;0.50;;
13012;SDS011;22580;57.670;12.006;2023-09-19T13:33:49;0.60;;;0.43;;
13012;SDS011;22580;57.670;12.006;2023-09-19T13:36:17;0.82;;;0.57;;
13012;SDS011;22580;57.670;12.006;2023-09-19T13:38:44;0.80;;;0.60;;
13012;SDS011;22580;57.670;12.006;2023-09-19T13:41:14;0.88;;;0.50;;
13012;SDS011;22580;57.670;12.006;2023-09-19T13:43:42;1.60;;;1.20;;
13012;SDS011;22580;57.670;12.006;2023-09-19T13:46:14;7.50;;;4.20;;
13012;SDS011;22580;57.670;12.006;2023-09-19T13:48:45;4.70;;;3.17;;
13012;SDS011;22580;57.670;12.006;2023-09-19T13:51:14;2.65;;;1.88;;
13012;SDS011;22580;57.670;12.006;2023-09-19T13:53:41;1.75;;;1.50;;
13012;SDS011;22580;57.670;12.006;2023-09-19T13:56:09;2.03;;;1.20;;
13012;SDS011;22580;57.670;12.006;2023-09-19T13:58:37;1.70;;;0.90;;
13012;SDS011;22580;57.670;12.006;2023-09-19T14:01:07;3.47;;;1.85;;
13012;SDS011;22580;57.670;12.006;2023-09-19T14:03:37;3.90;;;2.20;;
13012;SDS011;22580;57.670;12.006;2023-09-19T14:06:05;3.08;;;2.22;;
13012;SDS011;22580;57.670;12.006;2023-09-19T14:08:33;2.72;;;1.70;;
13012;SDS011;22580;57.670;12.006;2023-09-19T14:11:05;3.03;;;1.80;;
13012;SDS011;22580;57.670;12.006;2023-09-19T14:13:32;2.00;;;1.45;;
13012;SDS011;22580;57.670;12.006;2023-09-19T14:16:02;3.35;;;1.70;;
13012;SDS011;22580;57.670;12.006;2023-09-19T14:18:30;1.25;;;1.02;;
13012;SDS011;22580;57.670;12.006;2023-09-19T14:20:57;3.58;;;1.90;;
13012;SDS011;22580;57.670;12.006;2023-09-19T14:23:25;2.17;;;1.20;;
13012;SDS011;22580;57.670;12.006;2023-09-19T14:25:53;3.65;;;1.25;;
13012;SDS011;22580;57.670;12.006;2023-09-19T14:28:24;3.13;;;1.35;;
13012;SDS011;22580;57.670;12.006;2023-09-19T14:30:51;2.65;;;1.15;;
13012;SDS011;22580;57.670;12.006;2023-09-19T14:33:18;3.42;;;1.40;;
13012;SDS011;22580;57.670;12.006;2023-09-19T14:35:45;3.72;;;1.40;;
13012;SDS011;22580;57.670;12.006;2023-09-19T14:38:12;2.53;;;1.15;;
13012;SDS011;22580;57.670;12.006;2023-09-19T14:40:41;2.80;;;1.40;;
13012;SDS011;22580;57.670;12.006;2023-09-19T14:43:08;3.53;;;1.50;;
13012;SDS011;22580;57.670;12.006;2023-09-19T14:45:35;2.08;;;0.90;;
13012;SDS011;22580;57.670;12.006;2023-09-19T14:48:03;2.03;;;1.10;;
13012;SDS011;22580;57.670;12.006;2023-09-19T14:50:32;1.20;;;0.90;;
13012;SDS011;22580;57.670;12.006;2023-09-19T14:53:00;1.27;;;0.75;;
13012;SDS011;22580;57.670;12.006;2023-09-19T14:55:36;0.80;;;0.60;;
13012;SDS011;22580;57.670;12.006;2023-09-19T14:58:08;1.35;;;0.82;;
13012;SDS011;22580;57.670;12.006;2023-09-19T15:00:35;1.45;;;0.80;;
13012;SDS011;22580;57.670;12.006;2023-09-19T15:03:02;1.33;;;0.60;;
13012;SDS011;22580;57.670;12.006;2023-09-19T15:05:34;1.25;;;0.75;;
13012;SDS011;22580;57.670;12.006;2023-09-19T15:08:04;1.67;;;0.80;;
13012;SDS011;22580;57.670;12.006;2023-09-19T15:10:34;0.80;;;0.50;;
13012;SDS011;22580;57.670;12.006;2023-09-19T15:13:03;1.02;;;0.63;;